createdAt,value
2018-06-27T00:00:35.606Z,16.30
2018-06-27T00:03:05.113Z,16.30
2018-06-27T00:05:34.208Z,16.40
2018-06-27T00:10:31.959Z,16.40
2018-06-27T00:13:00.959Z,16.50
2018-06-27T00:15:30.017Z,16.50
2018-06-27T00:17:59.030Z,16.40
2018-06-27T00:20:28.110Z,16.50
2018-06-27T00:22:57.109Z,16.50
2018-06-27T00:25:26.243Z,16.50
2018-06-27T00:27:55.276Z,16.50
2018-06-27T00:30:24.355Z,16.50
2018-06-27T00:32:53.443Z,16.60
2018-06-27T00:35:22.474Z,16.60
2018-06-27T00:37:51.505Z,16.60
2018-06-27T00:40:20.596Z,16.60
2018-06-27T00:42:49.722Z,16.60
2018-06-27T00:45:18.751Z,16.50
2018-06-27T00:47:47.876Z,16.50
2018-06-27T00:50:16.985Z,16.50
2018-06-27T00:52:46.053Z,16.50
2018-06-27T00:55:15.197Z,16.50
2018-06-27T00:57:44.279Z,16.40
2018-06-27T01:00:13.521Z,16.40
2018-06-27T01:02:42.547Z,16.40
2018-06-27T01:05:11.617Z,16.40
2018-06-27T01:07:40.691Z,16.40
2018-06-27T01:10:09.756Z,16.30
2018-06-27T01:12:38.825Z,16.30
2018-06-27T01:15:08.106Z,16.20
2018-06-27T01:17:37.154Z,16.20
2018-06-27T01:20:06.964Z,16.20
2018-06-27T01:22:36.104Z,16.20
2018-06-27T01:25:05.378Z,16.20
2018-06-27T01:30:03.145Z,16.30
2018-06-27T01:32:32.166Z,16.30
2018-06-27T01:35:02.162Z,16.30
2018-06-27T01:37:31.240Z,16.30
2018-06-27T01:40:00.310Z,16.20
2018-06-27T01:42:29.425Z,16.20
2018-06-27T01:44:58.473Z,16.10
2018-06-27T01:47:27.916Z,16.10
2018-06-27T01:49:57.273Z,16.10
2018-06-27T01:52:26.303Z,16.00
2018-06-27T01:54:55.450Z,16.00
2018-06-27T01:57:24.538Z,15.90
2018-06-27T01:59:53.609Z,15.80
2018-06-27T02:02:22.645Z,15.70
2018-06-27T02:04:51.674Z,15.70
2018-06-27T02:07:21.339Z,15.60
2018-06-27T02:09:50.364Z,15.50
2018-06-27T02:12:19.474Z,15.40
2018-06-27T02:14:49.009Z,15.40
2018-06-27T02:17:18.786Z,15.30
2018-06-27T02:19:47.838Z,15.20
2018-06-27T02:22:16.890Z,15.20
2018-06-27T02:24:45.926Z,15.10
2018-06-27T02:27:15.539Z,15.10
2018-06-27T02:29:44.664Z,15.00
2018-06-27T02:32:13.717Z,14.90
2018-06-27T02:37:11.399Z,14.80
2018-06-27T02:39:40.446Z,14.70
2018-06-27T02:42:09.469Z,14.60
2018-06-27T02:44:38.482Z,14.50
2018-06-27T02:47:07.575Z,14.50
2018-06-27T02:49:36.639Z,14.40
2018-06-27T02:52:05.851Z,14.40
2018-06-27T02:54:34.944Z,14.30
2018-06-27T02:57:04.016Z,14.30
2018-06-27T02:59:33.061Z,14.30
2018-06-27T03:02:02.075Z,14.30
2018-06-27T03:04:31.205Z,14.20
2018-06-27T03:07:00.291Z,14.10
2018-06-27T03:09:29.402Z,14.10
2018-06-27T03:11:58.524Z,14.10
2018-06-27T03:14:27.551Z,14.10
2018-06-27T03:16:56.620Z,14.00
2018-06-27T03:19:25.722Z,14.00
2018-06-27T03:21:54.758Z,14.00
2018-06-27T03:24:23.821Z,13.90
2018-06-27T03:26:53.405Z,13.90
2018-06-27T03:29:22.435Z,13.90
2018-06-27T03:31:51.534Z,13.90
2018-06-27T03:34:20.627Z,13.90
2018-06-27T03:36:49.725Z,13.90
2018-06-27T03:39:18.735Z,13.90
2018-06-27T03:41:48.183Z,13.90
2018-06-27T03:44:17.196Z,13.90
2018-06-27T03:46:46.204Z,13.90
2018-06-27T03:49:15.322Z,14.00
2018-06-27T03:51:44.375Z,13.90
2018-06-27T03:54:13.432Z,14.00
2018-06-27T03:56:42.457Z,14.00
2018-06-27T03:59:11.533Z,14.10
2018-06-27T04:01:40.575Z,14.10
2018-06-27T04:04:09.616Z,14.10
2018-06-27T04:06:38.625Z,14.20
2018-06-27T04:09:10.409Z,14.20
2018-06-27T04:11:40.427Z,14.30
2018-06-27T04:14:09.592Z,14.30
2018-06-27T04:16:38.766Z,14.40
2018-06-27T04:19:07.812Z,14.40
2018-06-27T04:21:36.838Z,14.50
2018-06-27T04:24:05.976Z,14.60
2018-06-27T04:26:35.112Z,14.60
2018-06-27T04:29:04.183Z,14.70
2018-06-27T04:31:33.296Z,14.80
2018-06-27T04:34:02.715Z,14.90
2018-06-27T04:36:31.704Z,14.90
2018-06-27T04:39:00.753Z,15.00
2018-06-27T04:41:29.847Z,15.10
2018-06-27T04:43:58.877Z,15.20
2018-06-27T04:46:27.907Z,15.20
2018-06-27T04:48:57.183Z,15.30
2018-06-27T04:51:26.499Z,15.40
2018-06-27T04:53:55.658Z,15.50
2018-06-27T04:56:24.930Z,15.50
2018-06-27T04:58:53.957Z,15.60
2018-06-27T05:01:23.153Z,15.70
2018-06-27T05:03:52.185Z,15.80
2018-06-27T05:06:21.339Z,15.90
2018-06-27T05:08:50.367Z,16.10
2018-06-27T05:11:19.431Z,16.10
2018-06-27T05:13:48.495Z,16.10
2018-06-27T05:16:17.588Z,16.30
2018-06-27T05:18:46.660Z,16.40
2018-06-27T05:21:15.736Z,16.50
2018-06-27T05:23:44.750Z,16.60
2018-06-27T05:26:13.801Z,16.80
2018-06-27T05:28:43.423Z,17.10
2018-06-27T05:33:41.144Z,17.80
2018-06-27T05:36:10.228Z,17.90
2018-06-27T05:41:07.918Z,18.50
2018-06-27T05:43:37.921Z,18.80
2018-06-27T05:46:06.980Z,18.80
2018-06-27T05:48:36.072Z,19.00
2018-06-27T05:51:05.240Z,19.30
2018-06-27T05:53:34.234Z,19.50
2018-06-27T05:56:03.347Z,19.90
2018-06-27T05:58:32.424Z,20.00
2018-06-27T06:01:01.478Z,20.20
2018-06-27T06:03:30.605Z,20.50
2018-06-27T06:05:59.667Z,20.80
2018-06-27T06:08:28.940Z,20.90
2018-06-27T06:10:57.993Z,21.00
2018-06-27T06:13:27.149Z,20.90
2018-06-27T06:15:56.209Z,21.20
2018-06-27T06:18:25.221Z,21.60
2018-06-27T06:20:54.296Z,21.70
2018-06-27T06:23:23.315Z,21.80
2018-06-27T06:25:52.355Z,22.00
2018-06-27T06:28:21.374Z,22.20
2018-06-27T06:30:50.430Z,22.60
2018-06-27T06:33:20.051Z,22.60
2018-06-27T06:35:49.144Z,22.70
2018-06-27T06:38:18.177Z,22.80
2018-06-27T06:40:47.415Z,23.00
2018-06-27T06:43:16.376Z,23.00
2018-06-27T06:45:46.110Z,23.60
2018-06-27T06:48:15.880Z,24.00
2018-06-27T06:50:44.982Z,24.50
2018-06-27T06:53:14.010Z,24.70
2018-06-27T06:55:44.052Z,25.40
2018-06-27T06:58:13.179Z,25.30
2018-06-27T07:00:42.317Z,25.40
2018-06-27T07:03:11.464Z,25.80
2018-06-27T07:05:40.532Z,26.10
2018-06-27T07:08:09.604Z,26.20
2018-06-27T07:10:38.704Z,26.40
2018-06-27T07:13:07.805Z,26.60
2018-06-27T07:15:36.866Z,26.70
2018-06-27T07:18:06.153Z,26.90
2018-06-27T07:20:35.297Z,27.10
2018-06-27T07:23:04.371Z,27.30
2018-06-27T07:25:33.444Z,27.50
2018-06-27T07:28:02.495Z,27.70
2018-06-27T07:30:31.635Z,28.20
2018-06-27T07:37:57.989Z,28.70
2018-06-27T07:40:27.007Z,28.70
2018-06-27T07:42:56.035Z,28.30
2018-06-27T07:45:25.131Z,29.30
2018-06-27T07:47:54.245Z,29.30
2018-06-27T07:50:23.328Z,29.60
2018-06-27T07:52:52.354Z,29.50
2018-06-27T07:55:21.387Z,29.20
2018-06-27T07:58:00.358Z,28.80
2018-06-27T08:00:29.393Z,28.90
2018-06-27T08:02:58.457Z,29.40
2018-06-27T08:05:27.524Z,29.30
2018-06-27T08:07:56.641Z,29.30
2018-06-27T08:10:25.661Z,29.90
2018-06-27T08:12:54.855Z,29.80
2018-06-27T08:15:24.052Z,28.60
2018-06-27T08:17:53.183Z,29.20
2018-06-27T08:20:22.501Z,29.50
2018-06-27T08:22:51.597Z,29.70
2018-06-27T08:25:20.737Z,30.30
2018-06-27T08:27:49.783Z,30.60
2018-06-27T08:30:18.885Z,30.20
2018-06-27T08:32:47.905Z,30.40
2018-06-27T08:35:16.970Z,31.30
2018-06-27T08:37:46.000Z,31.70
2018-06-27T08:45:13.495Z,31.10
2018-06-27T08:47:42.556Z,30.90
2018-06-27T08:50:11.644Z,31.70
2018-06-27T08:52:40.699Z,31.00
2018-06-27T08:55:09.756Z,31.20
2018-06-27T08:57:39.038Z,31.30
2018-06-27T09:00:08.119Z,31.90
2018-06-27T09:02:38.034Z,31.70
2018-06-27T09:05:07.809Z,31.80
2018-06-27T09:07:36.959Z,32.20
2018-06-27T09:10:06.086Z,32.30
2018-06-27T09:12:35.166Z,33.40
2018-06-27T09:15:04.484Z,33.90
2018-06-27T09:17:33.692Z,33.70
2018-06-27T09:20:03.291Z,34.20
2018-06-27T09:22:32.371Z,34.30
2018-06-27T09:25:23.581Z,34.30
2018-06-27T09:27:52.668Z,34.00
2018-06-27T09:30:21.711Z,34.20
2018-06-27T09:32:50.780Z,34.30
2018-06-27T09:35:19.867Z,34.40
2018-06-27T09:37:49.211Z,34.30
2018-06-27T09:40:18.426Z,33.80
2018-06-27T09:42:47.482Z,33.90
2018-06-27T09:48:07.573Z,34.70
2018-06-27T09:50:36.772Z,35.00
2018-06-27T09:53:06.251Z,35.50
2018-06-27T09:55:35.317Z,35.20
2018-06-27T09:58:04.445Z,35.20
2018-06-27T10:00:38.799Z,34.60
2018-06-27T10:03:09.044Z,33.80
2018-06-27T10:05:38.586Z,33.60
2018-06-27T10:08:08.090Z,34.10
2018-06-27T10:10:37.232Z,33.70
2018-06-27T10:13:06.306Z,33.90
2018-06-27T10:15:35.568Z,32.70
2018-06-27T10:18:04.728Z,32.40
2018-06-27T10:20:33.854Z,32.20
2018-06-27T10:23:03.009Z,32.00
2018-06-27T10:28:00.807Z,30.00
2018-06-27T10:30:29.945Z,28.60
2018-06-27T10:32:59.039Z,27.70
2018-06-27T10:35:28.216Z,27.60
2018-06-27T10:37:57.325Z,28.70
2018-06-27T10:40:26.459Z,30.40
2018-06-27T10:42:55.653Z,31.50
2018-06-27T10:45:24.774Z,30.60
2018-06-27T10:47:53.818Z,30.00
2018-06-27T10:50:22.918Z,29.90
2018-06-27T10:52:52.056Z,29.70
2018-06-27T10:55:21.947Z,30.80
2018-06-27T10:57:51.093Z,31.20
2018-06-27T11:00:20.187Z,31.50
2018-06-27T11:02:49.259Z,32.20
2018-06-27T11:05:18.447Z,32.60
2018-06-27T11:07:47.609Z,32.60
2018-06-27T11:10:16.673Z,32.70
2018-06-27T11:12:45.833Z,32.70
2018-06-27T11:15:15.007Z,33.00
2018-06-27T11:17:44.128Z,32.60
2018-06-27T11:20:13.262Z,31.80
2018-06-27T11:22:42.484Z,31.30
2018-06-27T11:25:11.679Z,30.80
2018-06-27T11:27:41.762Z,30.60
2018-06-27T11:30:11.179Z,31.40
2018-06-27T11:32:41.110Z,32.30
2018-06-27T11:35:10.527Z,33.00
2018-06-27T11:37:40.884Z,34.00
2018-06-27T11:42:39.005Z,34.00
2018-06-27T11:45:08.298Z,34.00
2018-06-27T11:47:37.700Z,33.80
2018-06-27T11:50:06.881Z,33.70
2018-06-27T11:52:36.046Z,33.00
2018-06-27T11:55:11.526Z,32.00
2018-06-27T11:57:42.482Z,32.30
2018-06-27T12:00:11.773Z,33.10
2018-06-27T12:02:40.904Z,33.00
2018-06-27T12:05:10.863Z,33.20
2018-06-27T12:07:40.339Z,32.70
2018-06-27T12:10:09.529Z,32.10
2018-06-27T12:12:38.636Z,31.40
2018-06-27T12:15:07.745Z,31.30
2018-06-27T12:17:36.926Z,31.50
2018-06-27T12:20:06.179Z,31.20
2018-06-27T12:22:35.261Z,30.30
2018-06-27T12:25:04.535Z,29.50
2018-06-27T12:27:33.668Z,28.70
2018-06-27T12:30:02.707Z,28.80
2018-06-27T12:32:33.207Z,28.90
2018-06-27T12:35:02.188Z,29.30
2018-06-27T12:37:32.101Z,29.40
2018-06-27T12:40:01.277Z,29.30
2018-06-27T12:42:39.333Z,28.30
2018-06-27T12:45:09.264Z,28.00
2018-06-27T12:47:41.182Z,27.80
2018-06-27T12:50:10.552Z,27.40
2018-06-27T12:52:39.611Z,27.10
2018-06-27T12:55:10.737Z,27.00
2018-06-27T12:57:39.840Z,27.80
2018-06-27T13:00:10.183Z,28.70
2018-06-27T13:02:40.980Z,29.50
2018-06-27T13:05:10.928Z,29.50
2018-06-27T13:07:40.081Z,29.20
2018-06-27T13:10:09.661Z,28.80
2018-06-27T13:12:38.909Z,28.90
2018-06-27T13:15:09.435Z,29.70
2018-06-27T13:17:38.540Z,29.70
2018-06-27T13:20:08.011Z,30.00
2018-06-27T13:22:37.257Z,30.60
2018-06-27T13:25:06.418Z,30.50
2018-06-27T13:27:35.585Z,30.50
2018-06-27T13:30:05.887Z,30.40
2018-06-27T13:32:35.012Z,30.50
2018-06-27T13:35:04.326Z,29.60
2018-06-27T13:37:33.532Z,28.50
2018-06-27T13:40:02.762Z,27.80
2018-06-27T13:42:31.910Z,27.50
2018-06-27T13:45:01.026Z,27.40
2018-06-27T13:47:30.912Z,28.10
2018-06-27T13:50:00.114Z,29.00
2018-06-27T13:52:29.174Z,29.90
2018-06-27T13:54:59.268Z,30.10
2018-06-27T13:57:29.256Z,30.30
2018-06-27T13:59:59.414Z,29.60
2018-06-27T14:02:28.779Z,28.70
2018-06-27T14:04:57.995Z,29.20
2018-06-27T14:07:27.100Z,30.20
2018-06-27T14:09:56.230Z,30.50
2018-06-27T14:12:25.301Z,30.40
2018-06-27T14:14:54.357Z,30.40
2018-06-27T14:17:23.413Z,29.90
2018-06-27T14:19:52.502Z,29.40
2018-06-27T14:22:21.685Z,29.00
2018-06-27T14:24:50.779Z,29.20
2018-06-27T14:27:19.867Z,29.60
2018-06-27T14:29:49.160Z,30.00
2018-06-27T14:32:18.247Z,29.50
2018-06-27T14:34:47.368Z,28.40
2018-06-27T14:37:16.534Z,27.90
2018-06-27T14:39:45.600Z,28.50
2018-06-27T14:42:14.681Z,28.70
2018-06-27T14:44:43.955Z,28.20
2018-06-27T14:47:13.087Z,27.90
2018-06-27T14:49:42.159Z,28.10
2018-06-27T14:52:11.318Z,28.70
2018-06-27T14:54:40.372Z,29.10
2018-06-27T14:57:09.474Z,29.40
2018-06-27T14:59:38.667Z,30.00
2018-06-27T15:02:07.849Z,29.50
2018-06-27T15:04:36.968Z,30.00
2018-06-27T15:07:06.581Z,30.00
2018-06-27T15:09:35.637Z,29.50
2018-06-27T15:12:04.816Z,28.50
2018-06-27T15:14:33.880Z,27.70
2018-06-27T15:17:03.755Z,27.10
2018-06-27T15:22:01.535Z,26.20
2018-06-27T15:24:30.698Z,26.00
2018-06-27T15:26:59.832Z,25.90
2018-06-27T15:29:28.934Z,25.90
2018-06-27T15:31:58.103Z,26.00
2018-06-27T15:34:27.433Z,26.00
2018-06-27T15:36:56.610Z,26.10
2018-06-27T15:39:26.095Z,26.30
2018-06-27T15:41:55.210Z,26.40
2018-06-27T15:44:24.359Z,26.60
2018-06-27T15:46:53.447Z,26.70
2018-06-27T15:49:22.563Z,26.70
2018-06-27T15:51:51.640Z,26.50
2018-06-27T15:56:49.433Z,26.10
2018-06-27T15:59:20.080Z,25.90
2018-06-27T16:01:49.225Z,25.70
2018-06-27T16:04:18.429Z,25.50
2018-06-27T16:06:47.741Z,25.40
2018-06-27T16:09:16.862Z,25.30
2018-06-27T16:11:46.167Z,25.30
2018-06-27T16:14:15.186Z,25.20
2018-06-27T16:16:44.549Z,25.10
2018-06-27T16:19:13.617Z,25.00
2018-06-27T16:21:43.165Z,24.90
2018-06-27T16:24:13.351Z,24.90
2018-06-27T16:26:42.422Z,24.90
2018-06-27T16:29:11.551Z,25.10
2018-06-27T16:31:40.613Z,25.20
2018-06-27T16:34:09.983Z,25.40
2018-06-27T16:36:39.073Z,25.50
2018-06-27T16:39:09.958Z,25.40
2018-06-27T16:41:39.150Z,25.30
2018-06-27T16:44:08.332Z,25.20
2018-06-27T16:46:37.460Z,25.10
2018-06-27T16:49:07.171Z,25.00
2018-06-27T16:51:36.519Z,24.80
2018-06-27T16:54:06.343Z,24.70
2018-06-27T16:56:35.733Z,24.70
2018-06-27T16:59:04.964Z,24.70
2018-06-27T17:01:34.318Z,24.70
2018-06-27T17:04:03.259Z,24.70
2018-06-27T17:06:32.512Z,24.70
2018-06-27T17:09:01.678Z,24.70
2018-06-27T17:11:30.929Z,24.70
2018-06-27T17:14:00.139Z,24.70
2018-06-27T17:16:29.570Z,24.80
2018-06-27T17:18:58.777Z,24.90
2018-06-27T17:21:27.940Z,24.90
2018-06-27T17:23:57.111Z,24.90
2018-06-27T17:26:27.086Z,24.80
2018-06-27T17:28:56.323Z,24.70
2018-06-27T17:31:25.765Z,24.60
2018-06-27T17:33:54.850Z,24.60
2018-06-27T17:36:23.997Z,24.50
2018-06-27T17:38:53.130Z,24.50
2018-06-27T17:41:23.096Z,24.30
2018-06-27T17:43:52.287Z,24.30
2018-06-27T17:46:21.669Z,24.20
2018-06-27T17:48:51.047Z,24.20
2018-06-27T17:51:20.387Z,24.00
2018-06-27T17:53:49.615Z,23.90
2018-06-27T17:56:18.767Z,23.80
2018-06-27T17:58:48.214Z,23.70
2018-06-27T18:01:17.632Z,23.60
2018-06-27T18:03:46.875Z,23.50
2018-06-27T18:06:16.418Z,23.40
2018-06-27T18:08:46.901Z,23.30
2018-06-27T18:11:16.442Z,23.20
2018-06-27T18:13:45.950Z,23.10
2018-06-27T18:18:44.349Z,23.00
2018-06-27T18:21:13.620Z,22.90
2018-06-27T18:23:43.932Z,22.90
2018-06-27T18:26:14.631Z,22.80
2018-06-27T18:31:13.469Z,22.70
2018-06-27T18:33:42.752Z,22.60
2018-06-27T18:36:12.626Z,22.60
2018-06-27T18:38:42.016Z,22.50
2018-06-27T18:41:12.420Z,22.50
2018-06-27T18:43:41.690Z,22.40
2018-06-27T18:46:10.880Z,22.40
2018-06-27T18:48:40.749Z,22.30
2018-06-27T18:51:10.469Z,22.20
2018-06-27T18:53:40.338Z,22.20
2018-06-27T18:56:10.613Z,22.20
2018-06-27T18:58:39.898Z,22.10
2018-06-27T19:01:09.205Z,22.10
2018-06-27T19:03:38.349Z,22.00
2018-06-27T19:06:07.593Z,22.00
2018-06-27T19:08:36.846Z,21.90
2018-06-27T19:11:06.044Z,21.80
2018-06-27T19:13:35.153Z,21.70
2018-06-27T19:16:08.982Z,21.60
2018-06-27T19:21:07.331Z,21.50
2018-06-27T19:23:36.555Z,21.40
2018-06-27T19:26:05.981Z,21.40
2018-06-27T19:28:35.135Z,21.30
2018-06-27T19:31:04.275Z,21.20
2018-06-27T19:33:33.375Z,21.20
2018-06-27T19:36:02.727Z,21.00
2018-06-27T19:38:32.491Z,21.00
2018-06-27T19:41:01.855Z,20.80
2018-06-27T19:43:30.995Z,20.80
2018-06-27T19:46:00.485Z,20.70
2018-06-27T19:48:29.864Z,20.60
2018-06-27T19:50:59.266Z,20.60
2018-06-27T19:53:29.666Z,20.60
2018-06-27T19:55:59.900Z,20.50
2018-06-27T19:58:29.640Z,20.50
2018-06-27T20:00:59.045Z,20.50
2018-06-27T20:03:29.067Z,20.40
2018-06-27T20:05:59.283Z,20.30
2018-06-27T20:08:28.702Z,20.30
2018-06-27T20:10:59.468Z,20.30
2018-06-27T20:15:58.428Z,20.20
2018-06-27T20:18:27.708Z,20.10
2018-06-27T20:23:25.697Z,20.10
2018-06-27T20:25:55.648Z,20.10
2018-06-27T20:28:28.144Z,20.00
2018-06-27T20:30:57.273Z,19.90
2018-06-27T20:33:27.689Z,19.90
2018-06-27T20:35:58.459Z,19.90
2018-06-27T20:38:27.844Z,19.80
2018-06-27T20:40:57.028Z,19.70
2018-06-27T20:43:26.372Z,19.70
2018-06-27T20:45:55.498Z,19.60
2018-06-27T20:48:24.650Z,19.50
2018-06-27T20:50:54.363Z,19.50
2018-06-27T20:53:23.759Z,19.40
2018-06-27T20:55:52.789Z,19.30
2018-06-27T20:58:21.948Z,19.30
2018-06-27T21:00:50.985Z,19.20
2018-06-27T21:05:48.727Z,19.10
2018-06-27T21:08:17.785Z,19.10
2018-06-27T21:10:47.040Z,19.00
2018-06-27T21:13:16.184Z,19.00
2018-06-27T21:15:45.312Z,19.00
2018-06-27T21:18:14.429Z,18.90
2018-06-27T21:20:43.694Z,18.90
2018-06-27T21:23:12.752Z,18.90
2018-06-27T21:25:41.866Z,18.90
2018-06-27T21:28:10.891Z,18.80
2018-06-27T21:30:40.107Z,18.70
2018-06-27T21:33:09.178Z,18.70
2018-06-27T21:35:38.254Z,18.70
2018-06-27T21:38:07.291Z,18.60
2018-06-27T21:40:36.397Z,18.50
2018-06-27T21:43:05.565Z,18.50
2018-06-27T21:45:34.643Z,18.50
2018-06-27T21:48:03.835Z,18.40
2018-06-27T21:50:32.913Z,18.40
2018-06-27T21:53:02.092Z,18.30
2018-06-27T21:55:31.307Z,18.30
2018-06-27T21:58:00.573Z,18.30
2018-06-27T22:00:32.085Z,18.30
2018-06-27T22:03:01.899Z,18.20
2018-06-27T22:05:31.036Z,18.10
2018-06-27T22:10:28.762Z,18.00
2018-06-27T22:12:57.835Z,18.00
2018-06-27T22:15:27.085Z,18.00
2018-06-27T22:17:56.138Z,17.90
2018-06-27T22:20:26.080Z,17.90
2018-06-27T22:22:55.123Z,17.80
2018-06-27T22:25:24.232Z,17.70
2018-06-27T22:27:53.404Z,17.70
2018-06-27T22:30:22.500Z,17.60
2018-06-27T22:32:51.634Z,17.60
2018-06-27T22:35:20.768Z,17.50
2018-06-27T22:37:49.778Z,17.50
2018-06-27T22:40:18.843Z,17.50
2018-06-27T22:42:47.856Z,17.40
2018-06-27T22:45:16.990Z,17.40
2018-06-27T22:47:46.081Z,17.40
2018-06-27T22:50:15.196Z,17.40
2018-06-27T22:52:44.223Z,17.40
2018-06-27T22:55:13.329Z,17.30
2018-06-27T22:57:42.392Z,17.30
2018-06-27T23:00:11.563Z,17.20
2018-06-27T23:02:40.658Z,17.20
2018-06-27T23:05:09.858Z,17.10
2018-06-27T23:07:38.925Z,17.10
2018-06-27T23:10:08.104Z,17.10
2018-06-27T23:12:37.136Z,17.00
2018-06-27T23:15:07.159Z,16.90
2018-06-27T23:17:36.271Z,16.90
2018-06-27T23:20:05.907Z,16.90
2018-06-27T23:22:43.502Z,16.90
2018-06-27T23:25:12.938Z,16.80
2018-06-27T23:27:43.036Z,16.80
2018-06-27T23:30:12.129Z,16.70
2018-06-27T23:32:41.648Z,16.70
2018-06-27T23:35:11.134Z,16.60
2018-06-27T23:37:40.863Z,16.60
2018-06-27T23:40:09.958Z,16.50
2018-06-27T23:42:39.053Z,16.40
2018-06-27T23:45:08.332Z,16.40
2018-06-27T23:47:37.442Z,16.40
2018-06-27T23:50:06.638Z,16.30
2018-06-27T23:52:35.753Z,16.30
2018-06-27T23:55:05.259Z,16.30
2018-06-27T23:57:34.323Z,16.20
